Time;durP1;ratioP1;P1;durP2;ratioP2;P2;SDS_P1;SDS_P2;PMS_P1;PMS_P2;Temp;Humidity;BMP_temperature;BMP_pressure;BME280_temperature;BME280_humidity;BME280_pressure;Samples;Min_cycle;Max_cycle;Signal;HPM_P1;HPM_P2
2024/01/29 00:00:49;;;;;;;;;;;18.20;48.00;;;;;;1556812;75;568;-74
2024/01/29 00:02:51;;;;;;;;;;;18.20;48.10;;;;;;1563240;75;732;-75
2024/01/29 00:04:53;;;;;;;;;;;18.20;48.00;;;;;;1559327;75;724;-74
2024/01/29 00:06:55;;;;;;;;;;;18.20;48.00;;;;;;1557583;75;706;-74
2024/01/29 00:08:57;;;;;;;;;;;18.10;48.00;;;;;;1556497;75;1168;-73
2024/01/29 00:10:59;;;;;;;;;;;18.20;48.00;;;;;;1553729;75;625;-72
2024/01/29 00:13:01;;;;;;;;;;;18.20;48.00;;;;;;1559084;75;686;-76
2024/01/29 00:15:03;;;;;;;;;;;18.20;48.00;;;;;;1568357;75;1926;-74
2024/01/29 00:17:05;;;;;;;;;;;18.20;48.00;;;;;;1562128;75;795;-75
2024/01/29 00:19:07;;;;;;;;;;;18.20;48.00;;;;;;1555794;75;1105;-72
2024/01/29 00:21:09;;;;;;;;;;;18.10;47.90;;;;;;1562540;75;700;-74
2024/01/29 00:23:10;;;;;;;;;;;18.20;48.00;;;;;;1558626;75;732;-73
2024/01/29 00:25:12;;;;;;;;;;;18.20;48.00;;;;;;1549395;75;731;-73
2024/01/29 00:27:14;;;;;;;;;;;18.10;48.00;;;;;;1555979;75;803;-74
2024/01/29 00:29:16;;;;;;;;;;;18.10;48.00;;;;;;1547200;75;1432;-72
2024/01/29 00:31:18;;;;;;;;;;;18.10;48.00;;;;;;1566253;75;739;-72
2024/01/29 00:33:20;;;;;;;;;;;18.20;48.00;;;;;;1559700;75;586;-73
2024/01/29 00:35:22;;;;;;;;;;;18.20;48.00;;;;;;1561372;75;1942;-76
2024/01/29 00:37:26;;;;;;;;;;;18.20;48.00;;;;;;1563236;75;735;-75
2024/01/29 00:39:27;;;;;;;;;;;18.20;48.00;;;;;;1550844;75;1145;-73
2024/01/29 00:41:29;;;;;;;;;;;18.20;48.00;;;;;;1555612;75;647;-73
2024/01/29 00:43:32;;;;;;;;;;;18.20;47.90;;;;;;1563723;75;721;-74
2024/01/29 00:45:34;;;;;;;;;;;18.20;47.90;;;;;;1550372;75;735;-73
2024/01/29 00:47:36;;;;;;;;;;;18.20;48.00;;;;;;1566873;75;744;-76
2024/01/29 00:49:38;;;;;;;;;;;18.20;48.00;;;;;;1562377;75;1091;-76
2024/01/29 00:51:40;;;;;;;;;;;18.20;48.00;;;;;;1551415;75;648;-76
2024/01/29 00:53:42;;;;;;;;;;;18.10;47.90;;;;;;1553413;75;809;-73
2024/01/29 00:55:45;;;;;;;;;;;18.10;47.90;;;;;;1554080;75;1943;-76
2024/01/29 00:57:47;;;;;;;;;;;18.10;48.00;;;;;;1561390;75;715;-74
2024/01/29 00:59:49;;;;;;;;;;;18.10;48.00;;;;;;1558650;75;1198;-75
2024/01/29 01:01:51;;;;;;;;;;;18.20;48.00;;;;;;1567004;75;640;-75
2024/01/29 01:03:53;;;;;;;;;;;18.20;48.00;;;;;;1563578;75;683;-74
2024/01/29 01:05:55;;;;;;;;;;;18.20;48.00;;;;;;1559061;75;676;-75
2024/01/29 01:07:57;;;;;;;;;;;18.20;48.00;;;;;;1547339;75;711;-72
2024/01/29 01:09:58;;;;;;;;;;;18.20;48.00;;;;;;1551239;75;1142;-73
2024/01/29 01:12:00;;;;;;;;;;;18.20;48.00;;;;;;1555843;75;663;-74
2024/01/29 01:14:02;;;;;;;;;;;18.20;47.90;;;;;;1561001;75;717;-76
2024/01/29 01:16:04;;;;;;;;;;;18.20;48.00;;;;;;1561919;75;1942;-72
2024/01/29 01:18:06;;;;;;;;;;;18.10;47.90;;;;;;1551396;75;749;-74
2024/01/29 01:20:08;;;;;;;;;;;18.10;47.90;;;;;;1549337;75;1146;-71
2024/01/29 01:22:11;;;;;;;;;;;18.10;48.00;;;;;;1557289;75;757;-72
2024/01/29 01:24:13;;;;;;;;;;;18.20;48.00;;;;;;1553927;75;590;-74
2024/01/29 01:26:15;;;;;;;;;;;18.10;47.90;;;;;;1559229;75;734;-74
2024/01/29 01:28:17;;;;;;;;;;;18.10;48.00;;;;;;1557632;75;659;-73
2024/01/29 01:30:20;;;;;;;;;;;18.10;48.00;;;;;;1563714;75;1475;-74
2024/01/29 01:32:22;;;;;;;;;;;18.10;47.90;;;;;;1557426;75;791;-74
2024/01/29 01:34:24;;;;;;;;;;;18.10;48.00;;;;;;1558870;75;712;-74
2024/01/29 01:36:25;;;;;;;;;;;18.10;48.00;;;;;;1556196;75;1934;-75
2024/01/29 01:38:27;;;;;;;;;;;18.10;47.90;;;;;;1560897;75;715;-75
2024/01/29 01:40:29;;;;;;;;;;;18.10;47.90;;;;;;1559009;75;1134;-75
2024/01/29 01:42:31;;;;;;;;;;;18.20;47.90;;;;;;1558202;75;706;-75
2024/01/29 01:44:33;;;;;;;;;;;18.10;48.00;;;;;;1568224;75;742;-74
2024/01/29 01:46:35;;;;;;;;;;;18.10;47.90;;;;;;1562435;75;623;-75
2024/01/29 01:48:37;;;;;;;;;;;18.10;47.90;;;;;;1551218;75;1126;-73
2024/01/29 01:50:39;;;;;;;;;;;18.20;47.90;;;;;;1565333;75;714;-75
2024/01/29 01:52:41;;;;;;;;;;;18.10;47.90;;;;;;1557528;75;751;-76
2024/01/29 01:54:43;;;;;;;;;;;18.10;47.90;;;;;;1558206;75;1926;-73
2024/01/29 01:56:45;;;;;;;;;;;18.10;47.90;;;;;;1563774;75;710;-73
2024/01/29 01:58:47;;;;;;;;;;;18.10;47.90;;;;;;1566256;75;1109;-73
2024/01/29 02:00:49;;;;;;;;;;;18.10;47.90;;;;;;1561010;75;649;-76
2024/01/29 02:02:51;;;;;;;;;;;18.10;47.90;;;;;;1560445;75;662;-75
2024/01/29 02:04:52;;;;;;;;;;;18.10;47.90;;;;;;1551473;75;716;-73
2024/01/29 02:06:54;;;;;;;;;;;18.20;47.90;;;;;;1568404;75;657;-76
2024/01/29 02:08:56;;;;;;;;;;;18.10;47.90;;;;;;1549587;75;1113;-76
2024/01/29 02:11:04;;;;;;;;;;;18.10;47.90;;;;;;1541801;75;730;-76
2024/01/29 02:13:02;;;;;;;;;;;18.10;47.90;;;;;;1550839;75;1038;-72
2024/01/29 02:15:04;;;;;;;;;;;18.10;48.00;;;;;;1555914;75;1939;-73
2024/01/29 02:17:06;;;;;;;;;;;18.10;47.90;;;;;;1561163;75;736;-75
2024/01/29 02:19:09;;;;;;;;;;;18.10;47.90;;;;;;1556235;75;1124;-75
2024/01/29 02:21:11;;;;;;;;;;;18.10;47.90;;;;;;1561255;75;945;-74
2024/01/29 02:23:13;;;;;;;;;;;18.10;47.90;;;;;;1568310;75;636;-77
2024/01/29 02:25:15;;;;;;;;;;;18.10;47.90;;;;;;1563220;75;753;-75
2024/01/29 02:27:17;;;;;;;;;;;18.10;47.90;;;;;;1561882;75;711;-75
2024/01/29 02:29:19;;;;;;;;;;;18.10;47.90;;;;;;1558332;75;1576;-75
2024/01/29 02:31:21;;;;;;;;;;;18.10;47.90;;;;;;1562663;75;722;-76
2024/01/29 02:33:22;;;;;;;;;;;18.10;47.90;;;;;;1556518;75;670;-71
2024/01/29 02:35:24;;;;;;;;;;;18.10;47.90;;;;;;1549025;75;1972;-73
2024/01/29 02:37:26;;;;;;;;;;;18.10;47.90;;;;;;1568054;75;721;-71
2024/01/29 02:39:28;;;;;;;;;;;18.10;47.90;;;;;;1549682;75;1160;-74
2024/01/29 02:41:30;;;;;;;;;;;18.10;47.80;;;;;;1553281;75;633;-72
2024/01/29 02:43:32;;;;;;;;;;;18.10;47.80;;;;;;1560411;75;667;-71
2024/01/29 02:45:34;;;;;;;;;;;18.10;47.90;;;;;;1555367;75;741;-74
2024/01/29 02:47:36;;;;;;;;;;;18.10;47.90;;;;;;1572527;75;728;-74
2024/01/29 02:49:38;;;;;;;;;;;18.10;47.90;;;;;;1563823;75;1099;-72
2024/01/29 02:51:39;;;;;;;;;;;18.10;47.90;;;;;;1566302;75;720;-75
2024/01/29 02:53:41;;;;;;;;;;;18.10;47.90;;;;;;1559091;75;687;-74
2024/01/29 02:55:43;;;;;;;;;;;18.10;47.90;;;;;;1552014;75;1939;-75
2024/01/29 02:57:45;;;;;;;;;;;18.10;47.80;;;;;;1561599;75;687;-76
2024/01/29 02:59:47;;;;;;;;;;;18.10;47.80;;;;;;1559905;75;1271;-75
2024/01/29 03:01:49;;;;;;;;;;;18.10;47.90;;;;;;1545006;75;834;-75
2024/01/29 03:03:51;;;;;;;;;;;18.10;47.80;;;;;;1558585;75;645;-74
2024/01/29 03:05:52;;;;;;;;;;;18.10;47.80;;;;;;1557097;75;641;-72
2024/01/29 03:07:54;;;;;;;;;;;18.10;47.80;;;;;;1547186;75;620;-72
2024/01/29 03:09:56;;;;;;;;;;;18.10;47.80;;;;;;1564438;75;1126;-73
2024/01/29 03:11:58;;;;;;;;;;;18.10;47.80;;;;;;1562959;75;716;-74
2024/01/29 03:14:01;;;;;;;;;;;18.10;47.80;;;;;;1567644;75;616;-72
2024/01/29 03:16:03;;;;;;;;;;;18.10;47.80;;;;;;1558833;75;1911;-74
2024/01/29 03:18:05;;;;;;;;;;;18.10;47.80;;;;;;1564098;75;658;-75
2024/01/29 03:20:07;;;;;;;;;;;18.10;47.80;;;;;;1562858;75;1066;-72
2024/01/29 03:22:09;;;;;;;;;;;18.10;47.80;;;;;;1564042;75;698;-74
2024/01/29 03:24:11;;;;;;;;;;;18.10;47.80;;;;;;1566968;75;695;-74
2024/01/29 03:26:12;;;;;;;;;;;18.10;47.80;;;;;;1548295;75;756;-75
2024/01/29 03:28:14;;;;;;;;;;;18.10;47.80;;;;;;1567720;75;728;-73
2024/01/29 03:30:16;;;;;;;;;;;18.10;47.80;;;;;;1556963;75;1445;-75
2024/01/29 03:32:18;;;;;;;;;;;18.00;47.70;;;;;;1565806;74;663;-71
2024/01/29 03:34:20;;;;;;;;;;;18.10;47.80;;;;;;1562306;75;697;-73
2024/01/29 03:36:22;;;;;;;;;;;18.10;47.80;;;;;;1560302;75;1936;-73
2024/01/29 03:38:24;;;;;;;;;;;18.00;47.60;;;;;;1545931;75;570;-75
2024/01/29 03:40:25;;;;;;;;;;;18.00;47.60;;;;;;1555992;75;1099;-75
2024/01/29 03:42:27;;;;;;;;;;;18.10;47.80;;;;;;1565772;75;769;-76
2024/01/29 03:44:29;;;;;;;;;;;18.10;47.80;;;;;;1550497;75;555;-76
2024/01/29 03:46:31;;;;;;;;;;;18.10;47.80;;;;;;1565968;75;703;-74
2024/01/29 03:48:36;;;;;;;;;;;18.10;47.80;;;;;;1565899;75;599;-74
2024/01/29 03:50:38;;;;;;;;;;;18.10;47.70;;;;;;1563025;75;595;-73
2024/01/29 03:52:39;;;;;;;;;;;18.00;47.60;;;;;;1568109;75;655;-72
2024/01/29 03:54:41;;;;;;;;;;;18.10;47.80;;;;;;1566181;75;792;-71
2024/01/29 03:56:43;;;;;;;;;;;18.00;47.60;;;;;;1566170;75;1932;-72
2024/01/29 03:58:45;;;;;;;;;;;18.00;47.60;;;;;;1556994;75;1166;-70
2024/01/29 04:00:47;;;;;;;;;;;18.10;47.80;;;;;;1556787;75;716;-75
2024/01/29 04:02:54;;;;;;;;;;;18.10;47.80;;;;;;1560168;75;675;-70
2024/01/29 04:04:53;;;;;;;;;;;18.10;47.80;;;;;;1546209;75;912;-73
2024/01/29 04:06:54;;;;;;;;;;;18.10;47.80;;;;;;1569981;75;714;-72
2024/01/29 04:08:56;;;;;;;;;;;18.10;47.80;;;;;;1554539;75;1140;-74
2024/01/29 04:10:58;;;;;;;;;;;18.10;47.70;;;;;;1553908;75;651;-70
2024/01/29 04:13:00;;;;;;;;;;;18.00;47.60;;;;;;1562088;75;720;-76
2024/01/29 04:15:02;;;;;;;;;;;18.10;47.80;;;;;;1566845;75;708;-73
2024/01/29 04:17:06;;;;;;;;;;;18.00;47.60;;;;;;1559980;75;1940;-74
2024/01/29 04:19:08;;;;;;;;;;;18.10;47.70;;;;;;1551138;75;1193;-73
2024/01/29 04:21:10;;;;;;;;;;;18.10;47.70;;;;;;1567020;75;746;-74
2024/01/29 04:23:12;;;;;;;;;;;18.00;47.60;;;;;;1555782;75;660;-74
2024/01/29 04:25:14;;;;;;;;;;;18.00;47.60;;;;;;1533651;76;1303;-74
2024/01/29 04:27:15;;;;;;;;;;;18.10;47.70;;;;;;1548077;75;711;-73
2024/01/29 04:29:18;;;;;;;;;;;18.00;47.60;;;;;;1565784;75;1352;-73
2024/01/29 04:31:20;;;;;;;;;;;18.10;47.70;;;;;;1558378;75;729;-74
2024/01/29 04:33:22;;;;;;;;;;;18.10;47.70;;;;;;1554099;75;815;-72
2024/01/29 04:35:23;;;;;;;;;;;18.00;47.50;;;;;;1567348;75;734;-74
2024/01/29 04:37:25;;;;;;;;;;;18.00;47.60;;;;;;1558297;75;1934;-74
2024/01/29 04:39:27;;;;;;;;;;;18.00;47.60;;;;;;1565566;75;1157;-76
2024/01/29 04:41:29;;;;;;;;;;;18.10;47.70;;;;;;1561510;75;741;-74
2024/01/29 04:43:31;;;;;;;;;;;18.00;47.60;;;;;;1563991;75;616;-74
2024/01/29 04:45:33;;;;;;;;;;;18.00;47.60;;;;;;1560169;75;650;-75
2024/01/29 04:47:35;;;;;;;;;;;18.10;47.70;;;;;;1565024;75;742;-74
2024/01/29 04:49:36;;;;;;;;;;;18.00;47.60;;;;;;1552391;75;1141;-72
2024/01/29 04:51:39;;;;;;;;;;;18.00;47.50;;;;;;1560027;75;595;-74
2024/01/29 04:53:41;;;;;;;;;;;18.00;47.50;;;;;;1551951;75;721;-74
2024/01/29 04:55:43;;;;;;;;;;;18.00;47.60;;;;;;1566950;75;757;-73
2024/01/29 04:57:45;;;;;;;;;;;18.00;47.50;;;;;;1562095;75;1933;-71
2024/01/29 04:59:46;;;;;;;;;;;18.00;47.50;;;;;;1561962;75;1086;-72
2024/01/29 05:01:48;;;;;;;;;;;18.00;47.50;;;;;;1549464;75;766;-70
2024/01/29 05:03:51;;;;;;;;;;;18.00;47.50;;;;;;1559834;75;686;-77
2024/01/29 05:05:54;;;;;;;;;;;18.00;47.50;;;;;;1561711;75;724;-75
2024/01/29 05:07:56;;;;;;;;;;;18.10;47.60;;;;;;1561803;75;766;-71
2024/01/29 05:09:58;;;;;;;;;;;18.00;47.50;;;;;;1563244;75;1135;-73
2024/01/29 05:11:59;;;;;;;;;;;18.00;47.50;;;;;;1558757;75;689;-74
2024/01/29 05:14:01;;;;;;;;;;;18.00;47.50;;;;;;1554914;75;732;-73
2024/01/29 05:16:03;;;;;;;;;;;18.00;47.60;;;;;;1559508;75;1946;-76
2024/01/29 05:18:05;;;;;;;;;;;18.10;47.60;;;;;;1566259;75;700;-75
2024/01/29 05:20:07;;;;;;;;;;;18.00;47.50;;;;;;1568398;75;1124;-75
2024/01/29 05:22:09;;;;;;;;;;;18.00;47.50;;;;;;1563708;74;825;-73
2024/01/29 05:24:11;;;;;;;;;;;18.00;47.50;;;;;;1558666;75;709;-72
2024/01/29 05:26:13;;;;;;;;;;;18.00;47.60;;;;;;1552605;75;753;-71
2024/01/29 05:28:15;;;;;;;;;;;18.00;47.50;;;;;;1561859;75;613;-74
2024/01/29 05:30:17;;;;;;;;;;;18.00;47.50;;;;;;1560477;75;1595;-76
2024/01/29 05:32:19;;;;;;;;;;;18.00;47.50;;;;;;1558348;75;697;-74
2024/01/29 05:34:21;;;;;;;;;;;18.00;47.50;;;;;;1549765;75;739;-75
2024/01/29 05:36:23;;;;;;;;;;;18.00;47.50;;;;;;1557725;75;1934;-74
2024/01/29 05:38:25;;;;;;;;;;;18.00;47.50;;;;;;1548016;75;773;-73
2024/01/29 05:40:27;;;;;;;;;;;18.00;47.50;;;;;;1559422;75;1135;-75
2024/01/29 05:42:29;;;;;;;;;;;18.00;47.50;;;;;;1563252;75;782;-74
2024/01/29 05:44:30;;;;;;;;;;;18.00;47.50;;;;;;1557483;75;745;-74
2024/01/29 05:46:32;;;;;;;;;;;18.00;47.50;;;;;;1563742;75;550;-74
2024/01/29 05:48:34;;;;;;;;;;;18.00;47.50;;;;;;1561267;75;1148;-71
2024/01/29 05:50:36;;;;;;;;;;;18.00;47.50;;;;;;1554891;75;620;-73
2024/01/29 05:52:38;;;;;;;;;;;18.00;47.50;;;;;;1562518;75;644;-75
2024/01/29 05:54:40;;;;;;;;;;;18.00;47.50;;;;;;1559799;75;676;-72
2024/01/29 05:56:42;;;;;;;;;;;18.00;47.50;;;;;;1565787;75;1923;-72
2024/01/29 05:58:49;;;;;;;;;;;18.00;47.50;;;;;;1560094;75;1176;-74
2024/01/29 06:00:47;;;;;;;;;;;18.00;47.50;;;;;;1558452;75;942;-74
2024/01/29 06:02:49;;;;;;;;;;;18.00;46.90;;;;;;1558508;75;756;-73
2024/01/29 06:04:51;;;;;;;;;;;18.00;47.10;;;;;;1560480;74;719;-69
2024/01/29 06:06:53;;;;;;;;;;;17.90;43.10;;;;;;1564603;75;676;-71
2024/01/29 06:08:55;;;;;;;;;;;18.00;43.90;;;;;;1564863;75;1133;-73
2024/01/29 06:10:57;;;;;;;;;;;17.90;43.90;;;;;;1568554;75;761;-73
2024/01/29 06:12:59;;;;;;;;;;;17.90;45.60;;;;;;1566821;75;727;-76
2024/01/29 06:15:01;;;;;;;;;;;17.90;46.20;;;;;;1572514;75;726;-73
2024/01/29 06:17:03;;;;;;;;;;;17.90;46.50;;;;;;1566416;75;1914;-74
2024/01/29 06:19:05;;;;;;;;;;;17.90;46.70;;;;;;1554898;75;1171;-74
2024/01/29 06:21:07;;;;;;;;;;;18.00;46.80;;;;;;1562902;75;793;-73
2024/01/29 06:23:09;;;;;;;;;;;17.90;46.80;;;;;;1567378;75;799;-73
2024/01/29 06:25:11;;;;;;;;;;;17.90;46.80;;;;;;1579339;75;1097;-74
2024/01/29 06:27:13;;;;;;;;;;;18.00;46.80;;;;;;1568721;75;700;-73
2024/01/29 06:29:15;;;;;;;;;;;17.90;46.80;;;;;;1559016;75;1114;-73
2024/01/29 06:31:17;;;;;;;;;;;18.00;46.80;;;;;;1561893;75;686;-74
2024/01/29 06:33:19;;;;;;;;;;;17.90;46.80;;;;;;1562743;75;773;-72
2024/01/29 06:35:22;;;;;;;;;;;17.90;46.80;;;;;;1560339;75;658;-74
2024/01/29 06:37:24;;;;;;;;;;;18.00;46.80;;;;;;1565433;75;1912;-74
2024/01/29 06:39:26;;;;;;;;;;;18.00;46.80;;;;;;1558502;75;1173;-73
2024/01/29 06:41:28;;;;;;;;;;;18.00;46.80;;;;;;1560118;75;771;-70
2024/01/29 06:43:30;;;;;;;;;;;17.90;46.70;;;;;;1558801;75;588;-73
2024/01/29 06:45:32;;;;;;;;;;;17.90;46.70;;;;;;1558423;75;689;-73
2024/01/29 06:47:34;;;;;;;;;;;17.90;46.70;;;;;;1559331;75;739;-73
2024/01/29 06:49:36;;;;;;;;;;;17.90;46.70;;;;;;1560496;75;1124;-74
2024/01/29 06:51:37;;;;;;;;;;;17.90;46.60;;;;;;1565592;75;716;-76
2024/01/29 06:53:39;;;;;;;;;;;17.90;46.60;;;;;;1556579;75;675;-73
2024/01/29 06:55:41;;;;;;;;;;;17.90;46.70;;;;;;1569898;75;825;-72
2024/01/29 06:57:43;;;;;;;;;;;17.90;46.60;;;;;;1556129;75;1923;-70
2024/01/29 06:59:45;;;;;;;;;;;17.90;46.60;;;;;;1558728;75;1101;-70
2024/01/29 07:01:47;;;;;;;;;;;17.90;46.50;;;;;;1568753;75;733;-70
2024/01/29 07:03:49;;;;;;;;;;;17.90;46.60;;;;;;1549042;74;767;-70
2024/01/29 07:05:51;;;;;;;;;;;17.90;46.60;;;;;;1560784;74;747;-71
2024/01/29 07:07:53;;;;;;;;;;;18.00;46.60;;;;;;1558592;75;726;-72
2024/01/29 07:09:55;;;;;;;;;;;17.90;46.60;;;;;;1563912;75;1133;-72
2024/01/29 07:11:57;;;;;;;;;;;17.90;46.50;;;;;;1563752;75;779;-71
2024/01/29 07:14:00;;;;;;;;;;;17.90;46.50;;;;;;1569723;75;729;-72
2024/01/29 07:16:02;;;;;;;;;;;17.90;46.60;;;;;;1559269;75;812;-72
2024/01/29 07:18:04;;;;;;;;;;;17.90;46.50;;;;;;1556168;75;1926;-75
2024/01/29 07:20:06;;;;;;;;;;;17.90;46.50;;;;;;1565442;75;1139;-75
2024/01/29 07:22:14;;;;;;;;;;;17.90;46.50;;;;;;1568139;75;774;-71
2024/01/29 07:24:11;;;;;;;;;;;17.90;46.50;;;;;;1567781;75;1699;-71
2024/01/29 07:26:13;;;;;;;;;;;17.90;46.50;;;;;;1564652;75;715;-69
2024/01/29 07:28:15;;;;;;;;;;;17.90;46.40;;;;;;1565482;75;679;-72
2024/01/29 07:30:17;;;;;;;;;;;17.90;46.50;;;;;;1566630;75;1579;-73
2024/01/29 07:32:19;;;;;;;;;;;17.90;46.40;;;;;;1556668;75;802;-71
2024/01/29 07:34:21;;;;;;;;;;;18.20;46.60;;;;;;1567671;75;666;-72
2024/01/29 07:36:23;;;;;;;;;;;17.90;46.50;;;;;;1568804;75;775;-71
2024/01/29 07:38:25;;;;;;;;;;;17.90;46.50;;;;;;1563658;75;1931;-72
2024/01/29 07:40:27;;;;;;;;;;;17.90;46.50;;;;;;1560208;75;1137;-71
2024/01/29 07:42:29;;;;;;;;;;;17.90;46.50;;;;;;1567444;75;803;-71
2024/01/29 07:44:31;;;;;;;;;;;17.90;46.50;;;;;;1564698;75;775;-71
2024/01/29 07:46:33;;;;;;;;;;;17.90;46.40;;;;;;1562340;75;826;-69
2024/01/29 07:48:35;;;;;;;;;;;17.90;46.40;;;;;;1574097;75;1141;-69
2024/01/29 07:50:37;;;;;;;;;;;17.90;46.50;;;;;;1555517;75;712;-71
2024/01/29 07:52:38;;;;;;;;;;;17.90;46.40;;;;;;1556727;75;676;-70
2024/01/29 07:54:40;;;;;;;;;;;17.90;46.40;;;;;;1562285;75;658;-75
2024/01/29 07:56:42;;;;;;;;;;;17.90;46.40;;;;;;1561978;75;669;-71
2024/01/29 07:58:44;;;;;;;;;;;17.80;46.10;;;;;;1568624;75;1923;-75
2024/01/29 08:00:46;;;;;;;;;;;17.90;46.30;;;;;;1568065;75;686;-74
2024/01/29 08:02:48;;;;;;;;;;;17.90;46.30;;;;;;1559731;75;767;-76
2024/01/29 08:04:50;;;;;;;;;;;17.90;46.30;;;;;;1551120;75;724;-74
2024/01/29 08:06:51;;;;;;;;;;;17.90;46.40;;;;;;1565244;75;567;-74
2024/01/29 08:08:53;;;;;;;;;;;17.80;46.20;;;;;;1557512;75;1160;-74
2024/01/29 08:10:59;;;;;;;;;;;17.90;46.40;;;;;;1562270;75;746;-73
2024/01/29 08:13:01;;;;;;;;;;;17.80;46.20;;;;;;1563654;75;744;-74
2024/01/29 08:15:03;;;;;;;;;;;17.80;46.30;;;;;;1554543;75;587;-73
2024/01/29 08:17:05;;;;;;;;;;;17.80;46.30;;;;;;1563172;75;1934;-77
2024/01/29 08:19:07;;;;;;;;;;;17.90;46.50;;;;;;1561236;75;1157;-72
2024/01/29 08:21:09;;;;;;;;;;;17.80;40.60;;;;;;1560431;75;715;-75
2024/01/29 08:23:11;;;;;;;;;;;17.80;43.40;;;;;;1556402;75;645;-77
2024/01/29 08:25:13;;;;;;;;;;;17.70;44.30;;;;;;1556401;75;646;-74
2024/01/29 08:27:15;;;;;;;;;;;17.80;45.00;;;;;;1562496;75;730;-75
2024/01/29 08:29:17;;;;;;;;;;;17.80;45.30;;;;;;1561649;75;1549;-74
2024/01/29 08:31:18;;;;;;;;;;;17.80;45.50;;;;;;1552772;75;640;-75
2024/01/29 08:33:20;;;;;;;;;;;17.80;45.60;;;;;;1558163;75;717;-75
2024/01/29 08:35:22;;;;;;;;;;;17.80;45.70;;;;;;1560451;75;741;-76
2024/01/29 08:37:24;;;;;;;;;;;17.80;45.70;;;;;;1558092;75;1919;-75
2024/01/29 08:39:26;;;;;;;;;;;17.90;46.00;;;;;;1555073;75;1172;-76
2024/01/29 08:41:28;;;;;;;;;;;17.90;46.00;;;;;;1555435;75;680;-77
2024/01/29 08:43:30;;;;;;;;;;;17.90;46.00;;;;;;1558202;75;826;-74
2024/01/29 08:45:31;;;;;;;;;;;17.90;46.00;;;;;;1565399;75;735;-76
2024/01/29 08:47:33;;;;;;;;;;;17.90;46.00;;;;;;1569399;75;728;-74
2024/01/29 08:49:36;;;;;;;;;;;17.90;46.00;;;;;;1557051;75;1178;-76
2024/01/29 08:51:37;;;;;;;;;;;17.90;46.10;;;;;;1552460;75;692;-75
2024/01/29 08:53:39;;;;;;;;;;;17.90;46.10;;;;;;1563577;75;675;-76
2024/01/29 08:55:41;;;;;;;;;;;17.90;46.10;;;;;;1556420;75;761;-78
2024/01/29 08:57:43;;;;;;;;;;;17.90;46.10;;;;;;1556787;75;1942;-75
2024/01/29 08:59:45;;;;;;;;;;;17.90;46.10;;;;;;1562835;75;1129;-75
2024/01/29 09:01:47;;;;;;;;;;;17.90;46.10;;;;;;1567100;75;747;-76
2024/01/29 09:03:49;;;;;;;;;;;17.90;46.10;;;;;;1568338;75;732;-76
2024/01/29 09:05:51;;;;;;;;;;;17.90;46.20;;;;;;1562405;74;755;-76
2024/01/29 09:07:53;;;;;;;;;;;17.90;46.10;;;;;;1545937;74;774;-75
2024/01/29 09:09:55;;;;;;;;;;;17.90;46.10;;;;;;1560394;74;1154;-72
2024/01/29 09:11:56;;;;;;;;;;;17.90;46.10;;;;;;1558817;74;699;-77
2024/01/29 09:13:58;;;;;;;;;;;17.90;46.20;;;;;;1555651;74;825;-75
2024/01/29 09:16:00;;;;;;;;;;;18.00;46.10;;;;;;1560576;75;829;-77
2024/01/29 09:18:02;;;;;;;;;;;18.00;46.20;;;;;;1563852;75;1934;-77
2024/01/29 09:20:12;;;;;;;;;;;18.00;46.10;;;;;;1549023;74;1132;-76
2024/01/29 09:22:10;;;;;;;;;;;18.00;46.20;;;;;;1557325;74;1467;-78
2024/01/29 09:24:12;;;;;;;;;;;18.00;46.20;;;;;;1552882;74;796;-76
2024/01/29 09:26:14;;;;;;;;;;;18.00;46.20;;;;;;1555242;75;719;-75
2024/01/29 09:28:16;;;;;;;;;;;17.90;46.20;;;;;;1565227;75;641;-77
2024/01/29 09:30:18;;;;;;;;;;;18.00;46.20;;;;;;1569468;75;1577;-76
2024/01/29 09:32:20;;;;;;;;;;;18.00;46.20;;;;;;1554198;75;608;-75
2024/01/29 09:34:24;;;;;;;;;;;18.00;46.20;;;;;;1563348;75;738;-76
2024/01/29 09:36:26;;;;;;;;;;;18.00;46.10;;;;;;1558534;74;975;-77
2024/01/29 09:38:27;;;;;;;;;;;18.00;46.10;;;;;;1557594;75;1942;-75
2024/01/29 09:40:29;;;;;;;;;;;18.00;46.20;;;;;;1559183;75;1164;-75
2024/01/29 09:42:31;;;;;;;;;;;18.00;46.10;;;;;;1566755;75;697;-76
2024/01/29 09:44:39;;;;;;;;;;;17.90;46.10;;;;;;1559745;75;713;-76
2024/01/29 09:46:41;;;;;;;;;;;18.00;46.20;;;;;;1564000;74;1001;-78
2024/01/29 09:48:43;;;;;;;;;;;18.00;46.20;;;;;;1558837;75;1180;-77
2024/01/29 09:50:45;;;;;;;;;;;17.90;46.20;;;;;;1568296;75;668;-75
2024/01/29 09:52:47;;;;;;;;;;;18.00;46.30;;;;;;1565213;75;763;-78
2024/01/29 09:54:49;;;;;;;;;;;17.90;46.20;;;;;;1553763;75;729;-75
2024/01/29 09:56:51;;;;;;;;;;;18.00;46.20;;;;;;1572325;75;654;-77
2024/01/29 09:58:53;;;;;;;;;;;17.90;46.30;;;;;;1567679;75;1930;-75
2024/01/29 10:00:55;;;;;;;;;;;18.00;46.20;;;;;;1560057;75;716;-75
2024/01/29 10:02:57;;;;;;;;;;;17.90;46.20;;;;;;1561554;75;737;-75
2024/01/29 10:04:58;;;;;;;;;;;18.00;46.20;;;;;;1555637;75;712;-74
2024/01/29 10:07:00;;;;;;;;;;;18.00;46.30;;;;;;1564707;75;661;-74
2024/01/29 10:09:04;;;;;;;;;;;18.00;46.30;;;;;;1551830;75;1182;-73
2024/01/29 10:11:06;;;;;;;;;;;18.00;46.30;;;;;;1561228;75;1489;-73
2024/01/29 10:13:08;;;;;;;;;;;18.00;46.30;;;;;;1558995;75;773;-76
2024/01/29 10:15:10;;;;;;;;;;;18.00;46.30;;;;;;1559849;75;737;-76
2024/01/29 10:17:12;;;;;;;;;;;18.00;46.50;;;;;;1554199;75;769;-76
2024/01/29 10:19:14;;;;;;;;;;;17.90;46.50;;;;;;1559197;75;1942;-75
2024/01/29 10:21:16;;;;;;;;;;;18.00;46.70;;;;;;1560224;75;731;-74
2024/01/29 10:23:18;;;;;;;;;;;18.00;47.00;;;;;;1562786;75;849;-76
2024/01/29 10:25:19;;;;;;;;;;;18.00;47.00;;;;;;1563459;75;790;-71
2024/01/29 10:27:22;;;;;;;;;;;18.00;47.10;;;;;;1558306;75;771;-77
2024/01/29 10:29:24;;;;;;;;;;;17.90;40.70;;;;;;1556375;75;1330;-75
2024/01/29 10:31:26;;;;;;;;;;;17.80;43.70;;;;;;1568105;75;738;-76
2024/01/29 10:33:27;;;;;;;;;;;17.80;44.70;;;;;;1557748;75;762;-74
2024/01/29 10:35:29;;;;;;;;;;;17.90;45.60;;;;;;1559924;75;653;-75
2024/01/29 10:37:31;;;;;;;;;;;17.80;46.10;;;;;;1564283;75;849;-76
2024/01/29 10:39:34;;;;;;;;;;;17.80;46.20;;;;;;1563440;75;1962;-76
2024/01/29 10:41:36;;;;;;;;;;;17.90;46.50;;;;;;1560015;75;702;-76
2024/01/29 10:43:38;;;;;;;;;;;17.90;46.80;;;;;;1557095;75;684;-76
2024/01/29 10:45:40;;;;;;;;;;;17.90;46.80;;;;;;1549883;75;755;-76
2024/01/29 10:47:44;;;;;;;;;;;17.90;47.00;;;;;;1568621;75;612;-75
2024/01/29 10:49:46;;;;;;;;;;;18.00;47.30;;;;;;1567125;75;2015;-75
2024/01/29 10:51:48;;;;;;;;;;;17.90;47.10;;;;;;1568001;75;723;-73
2024/01/29 10:53:50;;;;;;;;;;;17.90;47.20;;;;;;1563786;75;646;-74
2024/01/29 10:55:51;;;;;;;;;;;17.90;47.30;;;;;;1558821;75;715;-77
2024/01/29 10:57:54;;;;;;;;;;;18.00;47.40;;;;;;1575516;75;774;-75
2024/01/29 10:59:56;;;;;;;;;;;18.00;47.50;;;;;;1567464;75;1914;-75
2024/01/29 11:01:58;;;;;;;;;;;18.00;47.50;;;;;;1558571;75;642;-76
2024/01/29 11:04:00;;;;;;;;;;;18.00;47.50;;;;;;1563971;75;686;-73
2024/01/29 11:06:04;;;;;;;;;;;18.00;47.50;;;;;;1561331;75;714;-75
2024/01/29 11:08:06;;;;;;;;;;;18.00;47.60;;;;;;1553911;75;693;-73
2024/01/29 11:10:21;;;;;;;;;;;18.00;47.70;;;;;;1568489;75;1180;-78
2024/01/29 11:12:23;;;;;;;;;;;18.00;47.60;;;;;;1554741;75;644;-77
2024/01/29 11:14:25;;;;;;;;;;;18.00;47.70;;;;;;1561501;75;667;-75
2024/01/29 11:16:28;;;;;;;;;;;18.00;47.60;;;;;;1559884;75;717;-74
2024/01/29 11:18:34;;;;;;;;;;;18.00;40.20;;;;;;1563243;75;1927;-75
2024/01/29 11:20:38;;;;;;;;;;;17.70;41.30;;;;;;1560578;75;1169;-76
2024/01/29 11:22:40;;;;;;;;;;;17.60;43.80;;;;;;1558381;75;1001;-73
2024/01/29 11:24:44;;;;;;;;;;;17.60;45.20;;;;;;1563792;75;792;-73
2024/01/29 11:26:46;;;;;;;;;;;17.60;46.30;;;;;;1562234;75;605;-76
2024/01/29 11:28:49;;;;;;;;;;;17.70;46.50;;;;;;1560607;75;1188;-74
2024/01/29 11:30:52;;;;;;;;;;;17.70;47.10;;;;;;1561503;74;1535;-76
2024/01/29 11:32:55;;;;;;;;;;;17.70;47.40;;;;;;1555136;75;716;-77
2024/01/29 11:34:57;;;;;;;;;;;17.70;47.50;;;;;;1564735;75;759;-76
2024/01/29 11:37:00;;;;;;;;;;;17.80;47.50;;;;;;1561919;75;793;-77
2024/01/29 11:39:05;;;;;;;;;;;17.80;47.70;;;;;;1557558;75;1905;-75
2024/01/29 11:41:07;;;;;;;;;;;17.70;47.70;;;;;;1564466;75;722;-77
2024/01/29 11:43:18;;;;;;;;;;;17.80;47.80;;;;;;1563190;75;759;-75
2024/01/29 11:45:20;;;;;;;;;;;17.80;47.70;;;;;;1561809;75;719;-78
2024/01/29 11:47:22;;;;;;;;;;;17.80;47.80;;;;;;1556790;75;896;-77
2024/01/29 11:49:26;;;;;;;;;;;17.80;47.80;;;;;;1559014;75;1211;-77
2024/01/29 11:51:28;;;;;;;;;;;17.70;47.80;;;;;;1562640;75;1404;-75
2024/01/29 11:53:30;;;;;;;;;;;17.80;47.80;;;;;;1562109;75;660;-73
2024/01/29 11:55:32;;;;;;;;;;;17.80;47.80;;;;;;1568978;75;735;-75
2024/01/29 11:57:34;;;;;;;;;;;17.80;47.80;;;;;;1561204;75;651;-75
2024/01/29 11:59:45;;;;;;;;;;;17.80;47.80;;;;;;1560737;75;1939;-75
2024/01/29 12:01:48;;;;;;;;;;;17.80;47.80;;;;;;1563196;75;696;-74
2024/01/29 12:03:50;;;;;;;;;;;17.80;47.80;;;;;;1566428;75;713;-74
2024/01/29 12:05:52;;;;;;;;;;;17.80;47.80;;;;;;1552199;75;730;-75
2024/01/29 12:07:54;;;;;;;;;;;17.80;47.80;;;;;;1561568;75;731;-78